sensor_id;sensor_type;location;lat;lon;timestamp;pressure;altitude;pressure_sealevel;temperature;humidity
71915;BME280;60387;49.994;14.660;2023-04-24T00:01:43;96643.44;;;14.89;53.89
71915;BME280;60387;49.994;14.660;2023-04-24T00:04:16;96644.31;;;14.93;53.75
71915;BME280;60387;49.994;14.660;2023-04-24T00:06:50;96635.06;;;14.98;55.51
71915;BME280;60387;49.994;14.660;2023-04-24T00:09:23;96630.41;;;14.98;54.59
71915;BME280;60387;49.994;14.660;2023-04-24T00:11:56;96618.84;;;15.05;53.79
71915;BME280;60387;49.994;14.660;2023-04-24T00:14:31;96612.00;;;15.11;54.95
71915;BME280;60387;49.994;14.660;2023-04-24T00:17:04;96615.22;;;15.16;55.12
71915;BME280;60387;49.994;14.660;2023-04-24T00:19:37;96618.81;;;15.20;53.74
71915;BME280;60387;49.994;14.660;2023-04-24T00:22:11;96609.94;;;15.23;53.93
71915;BME280;60387;49.994;14.660;2023-04-24T00:24:44;96604.53;;;15.27;53.16
71915;BME280;60387;49.994;14.660;2023-04-24T00:27:17;96595.31;;;15.31;53.35
71915;BME280;60387;49.994;14.660;2023-04-24T00:29:51;96612.19;;;15.37;52.88
71915;BME280;60387;49.994;14.660;2023-04-24T00:32:24;96605.16;;;15.36;52.78
71915;BME280;60387;49.994;14.660;2023-04-24T00:34:57;96604.50;;;15.42;53.80
71915;BME280;60387;49.994;14.660;2023-04-24T00:37:31;96602.59;;;15.43;52.88
71915;BME280;60387;49.994;14.660;2023-04-24T00:40:05;96598.31;;;15.45;52.30
71915;BME280;60387;49.994;14.660;2023-04-24T00:42:39;96602.19;;;15.44;52.37
71915;BME280;60387;49.994;14.660;2023-04-24T00:45:13;96609.72;;;15.51;52.31
71915;BME280;60387;49.994;14.660;2023-04-24T00:47:46;96603.78;;;15.45;52.69
71915;BME280;60387;49.994;14.660;2023-04-24T00:50:21;96616.81;;;15.52;52.66
71915;BME280;60387;49.994;14.660;2023-04-24T00:52:54;96605.81;;;15.48;52.37
71915;BME280;60387;49.994;14.660;2023-04-24T00:55:27;96605.16;;;15.55;51.82
71915;BME280;60387;49.994;14.660;2023-04-24T00:58:01;96577.63;;;15.44;51.62
71915;BME280;60387;49.994;14.660;2023-04-24T01:00:34;96597.75;;;15.55;51.80
71915;BME280;60387;49.994;14.660;2023-04-24T01:03:08;96596.97;;;15.55;51.34
71915;BME280;60387;49.994;14.660;2023-04-24T01:05:41;96598.88;;;15.54;51.58
71915;BME280;60387;49.994;14.660;2023-04-24T01:08:15;96596.63;;;15.56;51.30
71915;BME280;60387;49.994;14.660;2023-04-24T01:10:50;96591.94;;;15.57;51.38
71915;BME280;60387;49.994;14.660;2023-04-24T01:13:24;96582.50;;;15.54;51.19
71915;BME280;60387;49.994;14.660;2023-04-24T01:15:58;96599.69;;;15.55;51.41
71915;BME280;60387;49.994;14.660;2023-04-24T01:18:31;96584.81;;;15.52;51.48
71915;BME280;60387;49.994;14.660;2023-04-24T01:21:06;96586.41;;;15.53;51.23
71915;BME280;60387;49.994;14.660;2023-04-24T01:23:42;96580.50;;;15.51;52.41
71915;BME280;60387;49.994;14.660;2023-04-24T01:26:17;96587.97;;;15.54;51.88
71915;BME280;60387;49.994;14.660;2023-04-24T01:28:50;96574.63;;;15.49;51.66
71915;BME280;60387;49.994;14.660;2023-04-24T01:31:24;96578.94;;;15.50;51.58
71915;BME280;60387;49.994;14.660;2023-04-24T01:33:57;96575.84;;;15.52;51.90
71915;BME280;60387;49.994;14.660;2023-04-24T01:36:31;96571.91;;;15.49;51.46
71915;BME280;60387;49.994;14.660;2023-04-24T01:39:06;96569.09;;;15.46;51.12
71915;BME280;60387;49.994;14.660;2023-04-24T01:41:39;96572.59;;;15.46;51.29
71915;BME280;60387;49.994;14.660;2023-04-24T01:44:12;96577.63;;;15.44;51.20
71915;BME280;60387;49.994;14.660;2023-04-24T01:46:46;96564.31;;;15.39;51.98
71915;BME280;60387;49.994;14.660;2023-04-24T01:49:19;96567.44;;;15.41;52.10
71915;BME280;60387;49.994;14.660;2023-04-24T01:51:53;96567.09;;;15.43;52.29
71915;BME280;60387;49.994;14.660;2023-04-24T01:54:26;96550.94;;;15.34;51.68
71915;BME280;60387;49.994;14.660;2023-04-24T01:56:59;96560.28;;;15.33;51.36
71915;BME280;60387;49.994;14.660;2023-04-24T01:59:33;96556.22;;;15.27;51.30
71915;BME280;60387;49.994;14.660;2023-04-24T02:02:07;96556.22;;;15.27;51.48
71915;BME280;60387;49.994;14.660;2023-04-24T02:04:41;96552.22;;;15.21;51.76
71915;BME280;60387;49.994;14.660;2023-04-24T02:07:14;96553.78;;;15.22;51.77
71915;BME280;60387;49.994;14.660;2023-04-24T02:09:47;96546.75;;;15.21;51.81
71915;BME280;60387;49.994;14.660;2023-04-24T02:12:21;96534.19;;;15.17;51.91
71915;BME280;60387;49.994;14.660;2023-04-24T02:14:54;96544.38;;;15.20;52.12
71915;BME280;60387;49.994;14.660;2023-04-24T02:17:27;96549.41;;;15.18;52.28
71915;BME280;60387;49.994;14.660;2023-04-24T02:20:01;96543.78;;;15.11;52.36
71915;BME280;60387;49.994;14.660;2023-04-24T02:22:34;96542.66;;;15.12;52.33
71915;BME280;60387;49.994;14.660;2023-04-24T02:25:07;96546.53;;;15.11;52.38
71915;BME280;60387;49.994;14.660;2023-04-24T02:27:41;96551.19;;;15.10;51.78
71915;BME280;60387;49.994;14.660;2023-04-24T02:30:14;96547.94;;;15.05;51.83
71915;BME280;60387;49.994;14.660;2023-04-24T02:32:47;96551.56;;;15.09;51.80
71915;BME280;60387;49.994;14.660;2023-04-24T02:35:21;96551.56;;;15.09;51.88
71915;BME280;60387;49.994;14.660;2023-04-24T02:37:54;96546.78;;;15.06;52.06
71915;BME280;60387;49.994;14.660;2023-04-24T02:40:27;96543.66;;;15.04;52.25
71915;BME280;60387;49.994;14.660;2023-04-24T02:43:00;96544.44;;;15.04;52.65
71915;BME280;60387;49.994;14.660;2023-04-24T02:45:34;96549.91;;;15.04;52.37
71915;BME280;60387;49.994;14.660;2023-04-24T02:48:07;96541.25;;;15.02;54.54
71915;BME280;60387;49.994;14.660;2023-04-24T02:50:40;96537.69;;;14.98;52.66
71915;BME280;60387;49.994;14.660;2023-04-24T02:53:14;96533.81;;;14.99;52.16
71915;BME280;60387;49.994;14.660;2023-04-24T02:55:47;96533.31;;;14.94;51.89
71915;BME280;60387;49.994;14.660;2023-04-24T02:58:20;96534.97;;;14.98;52.62
71915;BME280;60387;49.994;14.660;2023-04-24T03:00:54;96535.38;;;15.00;52.41
71915;BME280;60387;49.994;14.660;2023-04-24T03:03:28;96540.69;;;14.93;52.24
71915;BME280;60387;49.994;14.660;2023-04-24T03:06:01;96546.28;;;15.00;52.16
71915;BME280;60387;49.994;14.660;2023-04-24T03:08:35;96536.88;;;14.98;51.86
71915;BME280;60387;49.994;14.660;2023-04-24T03:11:08;96538.38;;;14.95;51.96
71915;BME280;60387;49.994;14.660;2023-04-24T03:13:42;96527.47;;;14.95;53.10
71915;BME280;60387;49.994;14.660;2023-04-24T03:16:15;96535.31;;;14.97;52.52
71915;BME280;60387;49.994;14.660;2023-04-24T03:18:48;96529.44;;;14.95;52.38
71915;BME280;60387;49.994;14.660;2023-04-24T03:21:22;96532.22;;;14.98;52.32
71915;BME280;60387;49.994;14.660;2023-04-24T03:23:55;96530.19;;;14.95;52.10
71915;BME280;60387;49.994;14.660;2023-04-24T03:26:28;96528.00;;;15.01;52.32
71915;BME280;60387;49.994;14.660;2023-04-24T03:29:02;96535.81;;;15.02;52.55
71915;BME280;60387;49.994;14.660;2023-04-24T03:31:35;96530.34;;;15.02;52.28
71915;BME280;60387;49.994;14.660;2023-04-24T03:34:08;96528.78;;;15.01;53.29
71915;BME280;60387;49.994;14.660;2023-04-24T03:36:42;96534.22;;;15.01;52.46
71915;BME280;60387;49.994;14.660;2023-04-24T03:39:15;96535.81;;;15.02;52.41
71915;BME280;60387;49.994;14.660;2023-04-24T03:41:48;96541.72;;;15.04;52.72
71915;BME280;60387;49.994;14.660;2023-04-24T03:44:21;96541.72;;;15.04;52.34
71915;BME280;60387;49.994;14.660;2023-04-24T03:46:55;96540.56;;;15.05;52.82
71915;BME280;60387;49.994;14.660;2023-04-24T03:49:28;96541.75;;;15.08;52.69
71915;BME280;60387;49.994;14.660;2023-04-24T03:52:01;96538.69;;;15.09;52.80
71915;BME280;60387;49.994;14.660;2023-04-24T03:54:35;96539.13;;;15.11;52.90
71915;BME280;60387;49.994;14.660;2023-04-24T03:57:08;96539.56;;;15.13;52.58
71915;BME280;60387;49.994;14.660;2023-04-24T03:59:41;96541.91;;;15.15;52.33
71915;BME280;60387;49.994;14.660;2023-04-24T04:02:14;96544.38;;;15.20;52.25
71915;BME280;60387;49.994;14.660;2023-04-24T04:04:48;96545.16;;;15.20;52.27
71915;BME280;60387;49.994;14.660;2023-04-24T04:07:21;96552.22;;;15.21;52.29
71915;BME280;60387;49.994;14.660;2023-04-24T04:09:54;96549.09;;;15.23;51.93
71915;BME280;60387;49.994;14.660;2023-04-24T04:12:28;96546.03;;;15.24;52.45
71915;BME280;60387;49.994;14.660;2023-04-24T04:15:02;96544.53;;;15.27;52.11
71915;BME280;60387;49.994;14.660;2023-04-24T04:17:35;96558.91;;;15.43;52.13
71915;BME280;60387;49.994;14.660;2023-04-24T04:20:09;96563.47;;;15.77;52.08
71915;BME280;60387;49.994;14.660;2023-04-24T04:22:42;96561.78;;;16.14;51.75
71915;BME280;60387;49.994;14.660;2023-04-24T04:25:15;96559.19;;;16.43;51.50
71915;BME280;60387;49.994;14.660;2023-04-24T04:27:49;96566.97;;;16.41;51.16
71915;BME280;60387;49.994;14.660;2023-04-24T04:30:22;96562.41;;;16.26;51.59
71915;BME280;60387;49.994;14.660;2023-04-24T04:32:55;96563.72;;;16.13;51.41
71915;BME280;60387;49.994;14.660;2023-04-24T04:35:28;96556.13;;;16.03;52.03
71915;BME280;60387;49.994;14.660;2023-04-24T04:38:02;96558.38;;;15.98;51.58
71915;BME280;60387;49.994;14.660;2023-04-24T04:40:35;96566.09;;;15.92;52.37
71915;BME280;60387;49.994;14.660;2023-04-24T04:43:12;96572.22;;;15.86;52.64
71915;BME280;60387;49.994;14.660;2023-04-24T04:45:45;96570.63;;;15.85;51.98
71915;BME280;60387;49.994;14.660;2023-04-24T04:48:18;96565.88;;;15.82;52.02
71915;BME280;60387;49.994;14.660;2023-04-24T04:50:52;96568.19;;;15.80;52.65
71915;BME280;60387;49.994;14.660;2023-04-24T04:53:25;96564.31;;;15.81;52.05
71915;BME280;60387;49.994;14.660;2023-04-24T04:55:58;96572.22;;;15.86;52.93
71915;BME280;60387;49.994;14.660;2023-04-24T04:58:32;96570.63;;;15.85;52.34
71915;BME280;60387;49.994;14.660;2023-04-24T05:01:05;96580.91;;;15.91;52.00
71915;BME280;60387;49.994;14.660;2023-04-24T05:03:38;96584.19;;;16.00;52.12
71915;BME280;60387;49.994;14.660;2023-04-24T05:06:11;96578.78;;;16.04;52.44
71915;BME280;60387;49.994;14.660;2023-04-24T05:08:45;96579.63;;;16.08;52.51
71915;BME280;60387;49.994;14.660;2023-04-24T05:11:18;96585.16;;;16.11;52.45
71915;BME280;60387;49.994;14.660;2023-04-24T05:13:51;96585.22;;;16.15;52.02
71915;BME280;60387;49.994;14.660;2023-04-24T05:16:24;96591.91;;;16.17;52.10
71915;BME280;60387;49.994;14.660;2023-04-24T05:18:58;96590.81;;;16.22;52.22
71915;BME280;60387;49.994;14.660;2023-04-24T05:21:31;96590.50;;;16.26;52.88
71915;BME280;60387;49.994;14.660;2023-04-24T05:24:05;96595.59;;;16.28;52.27
71915;BME280;60387;49.994;14.660;2023-04-24T05:26:38;96606.25;;;16.33;51.93
71915;BME280;60387;49.994;14.660;2023-04-24T05:29:11;96610.97;;;16.36;52.80
71915;BME280;60387;49.994;14.660;2023-04-24T05:31:45;96609.09;;;16.40;52.63
71915;BME280;60387;49.994;14.660;2023-04-24T05:34:18;96613.38;;;16.38;52.45
71915;BME280;60387;49.994;14.660;2023-04-24T05:36:51;96625.56;;;16.43;52.03
71915;BME280;60387;49.994;14.660;2023-04-24T05:39:25;96613.13;;;16.46;52.68
71915;BME280;60387;49.994;14.660;2023-04-24T05:41:58;96619.44;;;16.50;52.25
71915;BME280;60387;49.994;14.660;2023-04-24T05:44:31;96615.16;;;16.49;51.97
71915;BME280;60387;49.994;14.660;2023-04-24T05:47:05;96617.13;;;16.52;52.25
71915;BME280;60387;49.994;14.660;2023-04-24T05:49:38;96625.47;;;16.59;52.13
71915;BME280;60387;49.994;14.660;2023-04-24T05:52:11;96628.19;;;16.59;52.08
71915;BME280;60387;49.994;14.660;2023-04-24T05:54:44;96626.69;;;16.61;52.26
71915;BME280;60387;49.994;14.660;2023-04-24T05:57:18;96638.81;;;16.64;52.52
71915;BME280;60387;49.994;14.660;2023-04-24T05:59:51;96637.66;;;16.65;52.39
71915;BME280;60387;49.994;14.660;2023-04-24T06:02:24;96641.25;;;16.69;52.17
71915;BME280;60387;49.994;14.660;2023-04-24T06:04:58;96644.75;;;16.69;52.45
71915;BME280;60387;49.994;14.660;2023-04-24T06:07:32;96631.88;;;16.70;52.21
71915;BME280;60387;49.994;14.660;2023-04-24T06:10:05;96632.72;;;16.74;52.28
71915;BME280;60387;49.994;14.660;2023-04-24T06:12:39;96633.88;;;16.73;52.42
71915;BME280;60387;49.994;14.660;2023-04-24T06:15:12;96636.31;;;16.78;52.79
71915;BME280;60387;49.994;14.660;2023-04-24T06:17:46;96646.94;;;16.83;52.81
71915;BME280;60387;49.994;14.660;2023-04-24T06:20:19;96641.09;;;16.84;52.46
71915;BME280;60387;49.994;14.660;2023-04-24T06:22:52;96634.91;;;16.87;52.79
71915;BME280;60387;49.994;14.660;2023-04-24T06:25:25;96626.31;;;16.89;52.43
71915;BME280;60387;49.994;14.660;2023-04-24T06:27:59;96639.69;;;16.94;52.30
71915;BME280;60387;49.994;14.660;2023-04-24T06:30:32;96633.47;;;16.97;52.39
71915;BME280;60387;49.994;14.660;2023-04-24T06:33:05;96640.56;;;17.01;52.27
71915;BME280;60387;49.994;14.660;2023-04-24T06:35:39;96635.53;;;17.03;52.30
71915;BME280;60387;49.994;14.660;2023-04-24T06:38:12;96637.94;;;17.08;52.30
71915;BME280;60387;49.994;14.660;2023-04-24T06:40:45;96644.25;;;17.12;52.58
71915;BME280;60387;49.994;14.660;2023-04-24T06:43:18;96644.69;;;17.14;52.57
71915;BME280;60387;49.994;14.660;2023-04-24T06:45:52;96634.47;;;17.11;53.82
71915;BME280;60387;49.994;14.660;2023-04-24T06:48:25;96649.78;;;17.16;53.22
71915;BME280;60387;49.994;14.660;2023-04-24T06:50:59;96643.88;;;17.14;53.11
71915;BME280;60387;49.994;14.660;2023-04-24T06:53:32;96636.03;;;17.12;52.66
71915;BME280;60387;49.994;14.660;2023-04-24T06:56:05;96649.41;;;17.17;53.26
71915;BME280;60387;49.994;14.660;2023-04-24T06:58:39;96651.78;;;17.19;52.73
71915;BME280;60387;49.994;14.660;2023-04-24T07:01:12;96648.66;;;17.17;52.99
71915;BME280;60387;49.994;14.660;2023-04-24T07:03:45;96646.22;;;17.12;52.86
71915;BME280;60387;49.994;14.660;2023-04-24T07:06:19;96646.97;;;17.09;53.50
71915;BME280;60387;49.994;14.660;2023-04-24T07:08:52;96651.56;;;17.05;53.13
71915;BME280;60387;49.994;14.660;2023-04-24T07:11:25;96641.44;;;17.05;52.73
71915;BME280;60387;49.994;14.660;2023-04-24T07:13:58;96650.00;;;17.04;53.89
71915;BME280;60387;49.994;14.660;2023-04-24T07:16:32;96653.91;;;17.03;53.92
71915;BME280;60387;49.994;14.660;2023-04-24T07:19:05;96652.31;;;17.02;53.84
71915;BME280;60387;49.994;14.660;2023-04-24T07:21:39;96663.56;;;16.97;53.92
71915;BME280;60387;49.994;14.660;2023-04-24T07:24:12;96670.25;;;16.99;53.20
71915;BME280;60387;49.994;14.660;2023-04-24T07:26:45;96663.31;;;17.05;54.21
71915;BME280;60387;49.994;14.660;2023-04-24T07:29:19;96658.25;;;17.07;53.84
71915;BME280;60387;49.994;14.660;2023-04-24T07:31:52;96657.09;;;17.08;54.22
71915;BME280;60387;49.994;14.660;2023-04-24T07:34:25;96670.53;;;17.17;54.54
71915;BME280;60387;49.994;14.660;2023-04-24T07:36:59;96675.56;;;17.15;53.92
71915;BME280;60387;49.994;14.660;2023-04-24T07:39:32;96669.69;;;17.13;53.49
71915;BME280;60387;49.994;14.660;2023-04-24T07:42:05;96682.38;;;17.24;53.69
71915;BME280;60387;49.994;14.660;2023-04-24T07:44:38;96673.75;;;17.22;54.67
71915;BME280;60387;49.994;14.660;2023-04-24T07:47:12;96681.16;;;17.22;53.63
71915;BME280;60387;49.994;14.660;2023-04-24T07:49:45;96683.88;;;17.22;53.82
71915;BME280;60387;49.994;14.660;2023-04-24T07:52:18;96673.63;;;17.15;54.31
71915;BME280;60387;49.994;14.660;2023-04-24T07:54:52;96688.00;;;17.09;54.72
71915;BME280;60387;49.994;14.660;2023-04-24T07:57:25;96680.50;;;17.06;54.71
71915;BME280;60387;49.994;14.660;2023-04-24T07:59:59;96692.63;;;17.05;54.59
71915;BME280;60387;49.994;14.660;2023-04-24T08:02:32;96701.63;;;17.05;54.17
71915;BME280;60387;49.994;14.660;2023-04-24T08:05:05;96697.31;;;17.04;54.46
71915;BME280;60387;49.994;14.660;2023-04-24T08:07:39;96696.09;;;17.02;54.53
71915;BME280;60387;49.994;14.660;2023-04-24T08:10:12;96692.25;;;17.06;54.59
71915;BME280;60387;49.994;14.660;2023-04-24T08:12:45;96699.56;;;16.99;55.51
71915;BME280;60387;49.994;14.660;2023-04-24T08:15:19;96706.63;;;17.00;55.13
71915;BME280;60387;49.994;14.660;2023-04-24T08:17:52;96701.56;;;17.02;54.92
71915;BME280;60387;49.994;14.660;2023-04-24T08:20:25;96706.25;;;17.01;55.51
71915;BME280;60387;49.994;14.660;2023-04-24T08:22:59;96697.97;;;16.98;55.46
71915;BME280;60387;49.994;14.660;2023-04-24T08:25:32;96709.38;;;17.00;55.37
71915;BME280;60387;49.994;14.660;2023-04-24T08:28:06;96701.88;;;16.97;55.32
71915;BME280;60387;49.994;14.660;2023-04-24T08:30:41;96707.66;;;16.92;55.50
71915;BME280;60387;49.994;14.660;2023-04-24T08:33:14;96713.16;;;16.95;54.86
71915;BME280;60387;49.994;14.660;2023-04-24T08:35:48;96707.75;;;16.99;55.34
71915;BME280;60387;49.994;14.660;2023-04-24T08:38:21;96709.78;;;17.02;55.03
71915;BME280;60387;49.994;14.660;2023-04-24T08:40:57;96709.38;;;17.00;54.49
71915;BME280;60387;49.994;14.660;2023-04-24T08:43:33;96710.63;;;17.06;54.57
71915;BME280;60387;49.994;14.660;2023-04-24T08:46:06;96705.63;;;17.11;54.15
71915;BME280;60387;49.994;14.660;2023-04-24T08:48:39;96711.59;;;17.17;54.06
71915;BME280;60387;49.994;14.660;2023-04-24T08:51:13;96706.53;;;17.19;53.92
71915;BME280;60387;49.994;14.660;2023-04-24T08:53:46;96701.94;;;17.26;53.67
71915;BME280;60387;49.994;14.660;2023-04-24T08:56:21;96713.00;;;17.33;53.32
71915;BME280;60387;49.994;14.660;2023-04-24T08:58:55;96689.63;;;17.36;53.61
71915;BME280;60387;49.994;14.660;2023-04-24T09:01:29;96698.34;;;17.45;53.30
71915;BME280;60387;49.994;14.660;2023-04-24T09:04:06;96699.59;;;17.51;53.09
71915;BME280;60387;49.994;14.660;2023-04-24T09:06:40;96697.81;;;17.62;53.13
71915;BME280;60387;49.994;14.660;2023-04-24T09:09:16;96692.03;;;17.70;52.97
71915;BME280;60387;49.994;14.660;2023-04-24T09:11:51;96692.94;;;17.78;52.48
71915;BME280;60387;49.994;14.660;2023-04-24T09:14:25;96701.66;;;17.87;52.71
71915;BME280;60387;49.994;14.660;2023-04-24T09:16:59;96702.88;;;17.93;52.56
71915;BME280;60387;49.994;14.660;2023-04-24T09:19:32;96701.41;;;17.99;52.28
71915;BME280;60387;49.994;14.660;2023-04-24T09:22:06;96699.50;;;18.03;52.35
71915;BME280;60387;49.994;14.660;2023-04-24T09:24:40;96700.34;;;18.07;52.34
71915;BME280;60387;49.994;14.660;2023-04-24T09:27:13;96696.84;;;18.10;51.48
71915;BME280;60387;49.994;14.660;2023-04-24T09:29:56;96704.75;;;18.15;51.68
71915;BME280;60387;49.994;14.660;2023-04-24T09:32:30;96706.00;;;18.21;50.82
71915;BME280;60387;49.994;14.660;2023-04-24T09:35:14;96713.88;;;18.26;51.19
71915;BME280;60387;49.994;14.660;2023-04-24T09:37:48;96698.63;;;18.28;50.80
71915;BME280;60387;49.994;14.660;2023-04-24T09:40:22;96711.28;;;18.36;50.88
71915;BME280;60387;49.994;14.660;2023-04-24T09:42:56;96706.66;;;18.44;50.79
71915;BME280;60387;49.994;14.660;2023-04-24T09:45:37;96706.75;;;18.54;51.06
71915;BME280;60387;49.994;14.660;2023-04-24T09:48:10;96697.44;;;18.62;50.60
71915;BME280;60387;49.994;14.660;2023-04-24T09:50:46;96699.13;;;18.74;50.25
71915;BME280;60387;49.994;14.660;2023-04-24T09:53:24;96690.53;;;18.79;50.43
71915;BME280;60387;49.994;14.660;2023-04-24T09:56:08;96685.03;;;18.79;50.10
71915;BME280;60387;49.994;14.660;2023-04-24T09:58:41;96693.81;;;18.95;50.28
71915;BME280;60387;49.994;14.660;2023-04-24T10:01:15;96689.25;;;19.13;50.61
71915;BME280;60387;49.994;14.660;2023-04-24T10:03:48;96681.19;;;19.30;50.43
71915;BME280;60387;49.994;14.660;2023-04-24T10:06:21;96686.41;;;19.53;50.06
71915;BME280;60387;49.994;14.660;2023-04-24T10:08:54;96682.63;;;19.71;49.95
71915;BME280;60387;49.994;14.660;2023-04-24T10:11:28;96689.75;;;19.89;49.45
71915;BME280;60387;49.994;14.660;2023-04-24T10:14:02;96687.06;;;20.00;48.91
71915;BME280;60387;49.994;14.660;2023-04-24T10:16:37;96689.09;;;20.10;49.19
71915;BME280;60387;49.994;14.660;2023-04-24T10:19:10;96677.34;;;20.16;48.58
71915;BME280;60387;49.994;14.660;2023-04-24T10:21:44;96680.91;;;20.31;48.99
71915;BME280;60387;49.994;14.660;2023-04-24T10:24:18;96686.06;;;20.46;48.17
71915;BME280;60387;49.994;14.660;2023-04-24T10:26:52;96684.53;;;20.66;48.59
71915;BME280;60387;49.994;14.660;2023-04-24T10:29:25;96670.44;;;20.89;47.96
71915;BME280;60387;49.994;14.660;2023-04-24T10:31:59;96675.16;;;21.06;48.29
71915;BME280;60387;49.994;14.660;2023-04-24T10:34:32;96680.66;;;21.23;48.18
71915;BME280;60387;49.994;14.660;2023-04-24T10:37:06;96678.28;;;21.43;47.52
71915;BME280;60387;49.994;14.660;2023-04-24T10:39:39;96680.59;;;21.58;46.47
71915;BME280;60387;49.994;14.660;2023-04-24T10:42:14;96672.75;;;21.60;46.72
71915;BME280;60387;49.994;14.660;2023-04-24T10:44:48;96671.94;;;21.70;47.15
71915;BME280;60387;49.994;14.660;2023-04-24T10:47:21;96676.97;;;21.96;47.52
71915;BME280;60387;49.994;14.660;2023-04-24T10:49:58;96674.06;;;22.35;46.21
71915;BME280;60387;49.994;14.660;2023-04-24T10:52:48;96664.41;;;22.67;44.82
71915;BME280;60387;49.994;14.660;2023-04-24T10:58:21;96668.03;;;23.12;43.13
71915;BME280;60387;49.994;14.660;2023-04-24T11:00:59;96666.03;;;23.12;43.00
71915;BME280;60387;49.994;14.660;2023-04-24T11:03:34;96668.81;;;23.09;43.32
71915;BME280;60387;49.994;14.660;2023-04-24T11:06:08;96664.13;;;23.06;42.44
71915;BME280;60387;49.994;14.660;2023-04-24T11:08:45;96658.19;;;23.14;42.56
71915;BME280;60387;49.994;14.660;2023-04-24T11:11:18;96648.63;;;23.22;41.99
71915;BME280;60387;49.994;14.660;2023-04-24T11:21:44;96647.63;;;23.79;41.12
71915;BME280;60387;49.994;14.660;2023-04-24T11:27:21;96659.06;;;24.15;38.75
71915;BME280;60387;49.994;14.660;2023-04-24T11:32:38;96645.50;;;24.54;37.91
71915;BME280;60387;49.994;14.660;2023-04-24T11:35:17;96639.06;;;24.64;37.29
71915;BME280;60387;49.994;14.660;2023-04-24T11:37:52;96649.09;;;24.81;38.72
71915;BME280;60387;49.994;14.660;2023-04-24T11:40:26;96655.44;;;25.04;37.39
71915;BME280;60387;49.994;14.660;2023-04-24T11:43:00;96640.13;;;25.23;37.17
71915;BME280;60387;49.994;14.660;2023-04-24T11:45:33;96645.44;;;25.37;37.42
71915;BME280;60387;49.994;14.660;2023-04-24T11:48:06;96646.50;;;25.43;35.30
71915;BME280;60387;49.994;14.660;2023-04-24T11:50:46;96651.44;;;25.55;37.32
71915;BME280;60387;49.994;14.660;2023-04-24T11:53:20;96658.78;;;25.65;36.65
71915;BME280;60387;49.994;14.660;2023-04-24T11:55:53;96655.22;;;25.64;35.78
71915;BME280;60387;49.994;14.660;2023-04-24T11:58:27;96649.66;;;25.64;35.71
71915;BME280;60387;49.994;14.660;2023-04-24T12:01:00;96641.72;;;25.66;34.72
71915;BME280;60387;49.994;14.660;2023-04-24T12:03:33;96649.97;;;25.70;34.54
71915;BME280;60387;49.994;14.660;2023-04-24T12:06:07;96643.22;;;25.71;33.89
71915;BME280;60387;49.994;14.660;2023-04-24T12:08:41;96637.44;;;25.62;34.85
71915;BME280;60387;49.994;14.660;2023-04-24T12:11:16;96643.41;;;25.60;34.62
71915;BME280;60387;49.994;14.660;2023-04-24T12:13:49;96640.16;;;25.65;33.35
71915;BME280;60387;49.994;14.660;2023-04-24T12:16:23;96640.63;;;25.60;34.96
71915;BME280;60387;49.994;14.660;2023-04-24T12:18:59;96638.72;;;25.57;33.18
71915;BME280;60387;49.994;14.660;2023-04-24T12:21:32;96635.78;;;25.45;33.59
71915;BME280;60387;49.994;14.660;2023-04-24T12:24:06;96636.53;;;25.45;34.23
71915;BME280;60387;49.994;14.660;2023-04-24T12:26:42;96637.88;;;25.37;35.08
71915;BME280;60387;49.994;14.660;2023-04-24T12:29:22;96636.44;;;25.29;34.96
71915;BME280;60387;49.994;14.660;2023-04-24T12:31:56;96639.56;;;25.08;33.33
71915;BME280;60387;49.994;14.660;2023-04-24T12:34:31;96657.44;;;24.77;32.76
71915;BME280;60387;49.994;14.660;2023-04-24T12:37:11;96666.00;;;24.30;34.38
71915;BME280;60387;49.994;14.660;2023-04-24T12:40:07;96683.31;;;23.70;36.78
71915;BME280;60387;49.994;14.660;2023-04-24T12:42:50;96687.44;;;23.01;37.54
71915;BME280;60387;49.994;14.660;2023-04-24T12:45:23;96683.50;;;22.37;39.88
71915;BME280;60387;49.994;14.660;2023-04-24T12:47:56;96694.00;;;21.74;40.10
71915;BME280;60387;49.994;14.660;2023-04-24T12:50:30;96688.91;;;21.23;40.90
71915;BME280;60387;49.994;14.660;2023-04-24T12:53:03;96688.47;;;20.79;42.65
71915;BME280;60387;49.994;14.660;2023-04-24T12:55:36;96682.53;;;20.42;43.14
71915;BME280;60387;49.994;14.660;2023-04-24T12:58:10;96677.69;;;20.04;42.48
71915;BME280;60387;49.994;14.660;2023-04-24T13:00:43;96674.88;;;19.97;42.70
71915;BME280;60387;49.994;14.660;2023-04-24T13:03:17;96686.28;;;19.96;43.68
71915;BME280;60387;49.994;14.660;2023-04-24T13:05:50;96677.19;;;19.92;43.30
71915;BME280;60387;49.994;14.660;2023-04-24T13:08:24;96675.25;;;19.92;43.62
71915;BME280;60387;49.994;14.660;2023-04-24T13:10:57;96678.03;;;19.96;43.83
71915;BME280;60387;49.994;14.660;2023-04-24T13:13:30;96687.47;;;19.98;43.98
71915;BME280;60387;49.994;14.660;2023-04-24T13:16:04;96666.25;;;20.02;43.91
71915;BME280;60387;49.994;14.660;2023-04-24T13:18:37;96665.53;;;20.12;44.42
71915;BME280;60387;49.994;14.660;2023-04-24T13:21:10;96662.03;;;20.22;44.07
71915;BME280;60387;49.994;14.660;2023-04-24T13:23:43;96658.91;;;20.27;44.59
71915;BME280;60387;49.994;14.660;2023-04-24T13:26:17;96649.13;;;20.37;44.82
71915;BME280;60387;49.994;14.660;2023-04-24T13:28:50;96657.38;;;20.47;45.06
71915;BME280;60387;49.994;14.660;2023-04-24T13:31:23;96655.44;;;20.58;45.07
71915;BME280;60387;49.994;14.660;2023-04-24T13:33:57;96644.03;;;20.74;45.48
71915;BME280;60387;49.994;14.660;2023-04-24T13:36:30;96643.28;;;20.91;45.93
71915;BME280;60387;49.994;14.660;2023-04-24T13:39:05;96646.03;;;21.12;45.44
71915;BME280;60387;49.994;14.660;2023-04-24T13:41:39;96646.81;;;21.26;44.82